sensor_id;sensor_type;location;lat;lon;timestamp;P1;durP1;ratioP1;P2;durP2;ratioP2
35644;SDS011;21764;52.042;6.830;2023-12-20T00:04:50;67.43;;;22.65;;
35644;SDS011;21764;52.042;6.830;2023-12-20T00:09:51;81.93;;;23.33;;
35644;SDS011;21764;52.042;6.830;2023-12-20T00:14:52;63.15;;;23.27;;
35644;SDS011;21764;52.042;6.830;2023-12-20T00:19:53;62.38;;;23.83;;
35644;SDS011;21764;52.042;6.830;2023-12-20T00:24:54;57.35;;;23.90;;
35644;SDS011;21764;52.042;6.830;2023-12-20T00:29:56;64.20;;;23.00;;
35644;SDS011;21764;52.042;6.830;2023-12-20T00:34:58;60.60;;;21.08;;
35644;SDS011;21764;52.042;6.830;2023-12-20T00:40:00;66.63;;;20.83;;
35644;SDS011;21764;52.042;6.830;2023-12-20T00:45:02;60.95;;;19.35;;
35644;SDS011;21764;52.042;6.830;2023-12-20T00:50:04;56.38;;;18.00;;
35644;SDS011;21764;52.042;6.830;2023-12-20T00:55:09;51.67;;;15.23;;
35644;SDS011;21764;52.042;6.830;2023-12-20T01:00:10;45.95;;;12.77;;
35644;SDS011;21764;52.042;6.830;2023-12-20T01:05:13;48.28;;;13.00;;
35644;SDS011;21764;52.042;6.830;2023-12-20T01:10:14;48.47;;;11.07;;
35644;SDS011;21764;52.042;6.830;2023-12-20T01:15:15;52.05;;;9.50;;
35644;SDS011;21764;52.042;6.830;2023-12-20T01:20:17;35.90;;;8.30;;
35644;SDS011;21764;52.042;6.830;2023-12-20T01:25:20;35.95;;;7.22;;
35644;SDS011;21764;52.042;6.830;2023-12-20T01:30:21;39.33;;;7.13;;
35644;SDS011;21764;52.042;6.830;2023-12-20T01:35:22;39.70;;;6.35;;
35644;SDS011;21764;52.042;6.830;2023-12-20T01:40:23;42.95;;;6.20;;
35644;SDS011;21764;52.042;6.830;2023-12-20T01:45:25;41.20;;;6.25;;
35644;SDS011;21764;52.042;6.830;2023-12-20T01:50:27;44.25;;;7.45;;
35644;SDS011;21764;52.042;6.830;2023-12-20T01:55:32;50.47;;;6.68;;
35644;SDS011;21764;52.042;6.830;2023-12-20T02:00:33;47.75;;;6.35;;
35644;SDS011;21764;52.042;6.830;2023-12-20T02:05:35;43.22;;;7.20;;
35644;SDS011;21764;52.042;6.830;2023-12-20T02:10:38;48.50;;;7.90;;
35644;SDS011;21764;52.042;6.830;2023-12-20T02:15:40;47.45;;;7.35;;
35644;SDS011;21764;52.042;6.830;2023-12-20T02:20:44;50.28;;;7.95;;
35644;SDS011;21764;52.042;6.830;2023-12-20T02:25:45;52.50;;;8.02;;
35644;SDS011;21764;52.042;6.830;2023-12-20T02:30:46;44.33;;;7.82;;
35644;SDS011;21764;52.042;6.830;2023-12-20T02:35:49;52.08;;;8.30;;
35644;SDS011;21764;52.042;6.830;2023-12-20T02:40:50;61.83;;;8.93;;
35644;SDS011;21764;52.042;6.830;2023-12-20T02:45:51;40.67;;;8.05;;
35644;SDS011;21764;52.042;6.830;2023-12-20T02:50:52;45.90;;;7.93;;
35644;SDS011;21764;52.042;6.830;2023-12-20T02:55:54;59.97;;;9.65;;
35644;SDS011;21764;52.042;6.830;2023-12-20T03:00:56;78.45;;;9.13;;
35644;SDS011;21764;52.042;6.830;2023-12-20T03:05:57;49.35;;;8.05;;
35644;SDS011;21764;52.042;6.830;2023-12-20T03:11:01;40.92;;;7.07;;
35644;SDS011;21764;52.042;6.830;2023-12-20T03:16:11;54.85;;;7.90;;
35644;SDS011;21764;52.042;6.830;2023-12-20T03:21:12;50.78;;;7.07;;
35644;SDS011;21764;52.042;6.830;2023-12-20T03:26:14;54.35;;;7.50;;
35644;SDS011;21764;52.042;6.830;2023-12-20T03:31:15;43.35;;;6.43;;
35644;SDS011;21764;52.042;6.830;2023-12-20T03:36:16;42.25;;;8.65;;
35644;SDS011;21764;52.042;6.830;2023-12-20T03:41:17;54.85;;;8.48;;
35644;SDS011;21764;52.042;6.830;2023-12-20T03:46:18;43.50;;;7.72;;
35644;SDS011;21764;52.042;6.830;2023-12-20T03:51:19;42.90;;;7.60;;
35644;SDS011;21764;52.042;6.830;2023-12-20T03:56:21;50.25;;;8.43;;
35644;SDS011;21764;52.042;6.830;2023-12-20T04:01:22;52.92;;;9.15;;
35644;SDS011;21764;52.042;6.830;2023-12-20T04:06:24;52.25;;;9.90;;
35644;SDS011;21764;52.042;6.830;2023-12-20T04:11:25;63.28;;;11.38;;
35644;SDS011;21764;52.042;6.830;2023-12-20T04:16:26;61.28;;;12.35;;
35644;SDS011;21764;52.042;6.830;2023-12-20T04:21:27;63.33;;;10.93;;
35644;SDS011;21764;52.042;6.830;2023-12-20T04:26:29;60.88;;;13.25;;
35644;SDS011;21764;52.042;6.830;2023-12-20T04:31:30;76.90;;;13.15;;
35644;SDS011;21764;52.042;6.830;2023-12-20T04:36:31;58.45;;;10.70;;
35644;SDS011;21764;52.042;6.830;2023-12-20T04:41:33;49.42;;;10.35;;
35644;SDS011;21764;52.042;6.830;2023-12-20T04:46:34;63.88;;;9.65;;
35644;SDS011;21764;52.042;6.830;2023-12-20T04:51:35;52.92;;;9.32;;
35644;SDS011;21764;52.042;6.830;2023-12-20T04:56:38;50.13;;;9.90;;
35644;SDS011;21764;52.042;6.830;2023-12-20T05:01:39;51.00;;;9.25;;
35644;SDS011;21764;52.042;6.830;2023-12-20T05:06:40;65.10;;;22.63;;
35644;SDS011;21764;52.042;6.830;2023-12-20T05:11:41;54.75;;;14.73;;
35644;SDS011;21764;52.042;6.830;2023-12-20T05:16:42;41.25;;;8.88;;
35644;SDS011;21764;52.042;6.830;2023-12-20T05:21:43;57.05;;;8.93;;
35644;SDS011;21764;52.042;6.830;2023-12-20T05:26:44;37.35;;;6.82;;
35644;SDS011;21764;52.042;6.830;2023-12-20T05:31:45;39.85;;;6.82;;
35644;SDS011;21764;52.042;6.830;2023-12-20T05:36:47;40.10;;;6.30;;
35644;SDS011;21764;52.042;6.830;2023-12-20T05:41:49;46.58;;;7.30;;
35644;SDS011;21764;52.042;6.830;2023-12-20T05:46:50;42.58;;;7.10;;
35644;SDS011;21764;52.042;6.830;2023-12-20T05:51:51;35.60;;;6.50;;
35644;SDS011;21764;52.042;6.830;2023-12-20T05:56:52;48.85;;;7.03;;
35644;SDS011;21764;52.042;6.830;2023-12-20T06:01:53;35.33;;;6.75;;
35644;SDS011;21764;52.042;6.830;2023-12-20T06:06:54;45.75;;;6.70;;
35644;SDS011;21764;52.042;6.830;2023-12-20T06:11:56;37.08;;;8.00;;
35644;SDS011;21764;52.042;6.830;2023-12-20T06:16:57;47.40;;;7.07;;
35644;SDS011;21764;52.042;6.830;2023-12-20T06:21:59;43.83;;;7.32;;
35644;SDS011;21764;52.042;6.830;2023-12-20T06:27:01;44.00;;;6.88;;
35644;SDS011;21764;52.042;6.830;2023-12-20T06:32:02;48.42;;;7.90;;
35644;SDS011;21764;52.042;6.830;2023-12-20T06:37:03;40.88;;;7.13;;
35644;SDS011;21764;52.042;6.830;2023-12-20T06:42:05;28.83;;;5.95;;
35644;SDS011;21764;52.042;6.830;2023-12-20T06:47:06;31.50;;;5.30;;
35644;SDS011;21764;52.042;6.830;2023-12-20T06:52:08;49.05;;;6.78;;
35644;SDS011;21764;52.042;6.830;2023-12-20T06:57:09;41.15;;;7.97;;
35644;SDS011;21764;52.042;6.830;2023-12-20T07:02:10;42.88;;;6.47;;
35644;SDS011;21764;52.042;6.830;2023-12-20T07:07:11;45.58;;;7.05;;
35644;SDS011;21764;52.042;6.830;2023-12-20T07:12:14;44.25;;;7.10;;
35644;SDS011;21764;52.042;6.830;2023-12-20T07:17:16;43.88;;;6.35;;
35644;SDS011;21764;52.042;6.830;2023-12-20T07:22:17;44.33;;;7.43;;
35644;SDS011;21764;52.042;6.830;2023-12-20T07:27:18;49.58;;;9.43;;
35644;SDS011;21764;52.042;6.830;2023-12-20T07:32:19;37.80;;;5.90;;
35644;SDS011;21764;52.042;6.830;2023-12-20T07:37:20;52.60;;;7.25;;
35644;SDS011;21764;52.042;6.830;2023-12-20T07:42:21;36.70;;;6.68;;
35644;SDS011;21764;52.042;6.830;2023-12-20T07:47:22;48.10;;;8.27;;
35644;SDS011;21764;52.042;6.830;2023-12-20T07:52:25;33.10;;;7.10;;
35644;SDS011;21764;52.042;6.830;2023-12-20T07:57:28;42.53;;;6.47;;
35644;SDS011;21764;52.042;6.830;2023-12-20T08:02:31;57.75;;;8.27;;
35644;SDS011;21764;52.042;6.830;2023-12-20T08:07:32;47.42;;;6.95;;
35644;SDS011;21764;52.042;6.830;2023-12-20T08:12:33;37.28;;;6.68;;
35644;SDS011;21764;52.042;6.830;2023-12-20T08:17:34;47.50;;;7.07;;
35644;SDS011;21764;52.042;6.830;2023-12-20T08:22:36;51.67;;;7.68;;
35644;SDS011;21764;52.042;6.830;2023-12-20T08:27:39;38.45;;;6.70;;
35644;SDS011;21764;52.042;6.830;2023-12-20T08:32:41;44.40;;;7.37;;
35644;SDS011;21764;52.042;6.830;2023-12-20T08:37:42;43.42;;;6.50;;
35644;SDS011;21764;52.042;6.830;2023-12-20T08:42:46;34.05;;;5.03;;
35644;SDS011;21764;52.042;6.830;2023-12-20T08:47:51;38.97;;;6.03;;
35644;SDS011;21764;52.042;6.830;2023-12-20T08:52:55;40.95;;;6.65;;
35644;SDS011;21764;52.042;6.830;2023-12-20T08:58:03;31.67;;;5.85;;
35644;SDS011;21764;52.042;6.830;2023-12-20T09:03:09;41.00;;;7.63;;
35644;SDS011;21764;52.042;6.830;2023-12-20T09:08:26;37.72;;;5.50;;
35644;SDS011;21764;52.042;6.830;2023-12-20T09:13:35;41.70;;;6.15;;
35644;SDS011;21764;52.042;6.830;2023-12-20T09:18:37;46.58;;;8.07;;
35644;SDS011;21764;52.042;6.830;2023-12-20T09:23:56;53.10;;;7.05;;
35644;SDS011;21764;52.042;6.830;2023-12-20T09:29:04;43.50;;;8.27;;
35644;SDS011;21764;52.042;6.830;2023-12-20T09:34:15;54.63;;;12.93;;
35644;SDS011;21764;52.042;6.830;2023-12-20T09:39:21;50.38;;;8.93;;
35644;SDS011;21764;52.042;6.830;2023-12-20T09:44:27;45.15;;;8.82;;
35644;SDS011;21764;52.042;6.830;2023-12-20T09:49:43;41.33;;;8.85;;
35644;SDS011;21764;52.042;6.830;2023-12-20T09:54:54;39.17;;;8.55;;
35644;SDS011;21764;52.042;6.830;2023-12-20T10:00:22;40.72;;;6.80;;
35644;SDS011;21764;52.042;6.830;2023-12-20T10:05:30;36.22;;;7.45;;
35644;SDS011;21764;52.042;6.830;2023-12-20T10:11:09;25.58;;;6.68;;
35644;SDS011;21764;52.042;6.830;2023-12-20T10:16:11;42.17;;;8.52;;
35644;SDS011;21764;52.042;6.830;2023-12-20T10:21:20;37.25;;;6.55;;
35644;SDS011;21764;52.042;6.830;2023-12-20T10:26:31;31.98;;;6.90;;
35644;SDS011;21764;52.042;6.830;2023-12-20T10:31:38;37.67;;;7.07;;
35644;SDS011;21764;52.042;6.830;2023-12-20T10:36:50;37.42;;;7.40;;
35644;SDS011;21764;52.042;6.830;2023-12-20T10:42:01;29.55;;;6.25;;
35644;SDS011;21764;52.042;6.830;2023-12-20T10:47:24;37.58;;;8.18;;
35644;SDS011;21764;52.042;6.830;2023-12-20T10:57:54;41.28;;;10.70;;
35644;SDS011;21764;52.042;6.830;2023-12-20T11:03:19;37.45;;;9.00;;
35644;SDS011;21764;52.042;6.830;2023-12-20T11:25:18;42.00;;;9.07;;
35644;SDS011;21764;52.042;6.830;2023-12-20T11:30:52;34.72;;;6.50;;
35644;SDS011;21764;52.042;6.830;2023-12-20T11:36:18;45.05;;;6.80;;
35644;SDS011;21764;52.042;6.830;2023-12-20T11:41:54;38.05;;;7.22;;
35644;SDS011;21764;52.042;6.830;2023-12-20T11:47:24;30.70;;;5.73;;
35644;SDS011;21764;52.042;6.830;2023-12-20T11:52:52;34.42;;;6.63;;
35644;SDS011;21764;52.042;6.830;2023-12-20T11:57:56;33.95;;;7.13;;
35644;SDS011;21764;52.042;6.830;2023-12-20T12:03:03;47.72;;;10.13;;
35644;SDS011;21764;52.042;6.830;2023-12-20T12:08:05;34.28;;;5.60;;
35644;SDS011;21764;52.042;6.830;2023-12-20T12:13:07;36.50;;;8.20;;
35644;SDS011;21764;52.042;6.830;2023-12-20T12:18:09;33.75;;;7.85;;
35644;SDS011;21764;52.042;6.830;2023-12-20T12:23:15;34.23;;;6.53;;
35644;SDS011;21764;52.042;6.830;2023-12-20T12:28:26;38.38;;;10.15;;
35644;SDS011;21764;52.042;6.830;2023-12-20T12:33:32;41.28;;;8.43;;
35644;SDS011;21764;52.042;6.830;2023-12-20T12:38:34;32.55;;;7.78;;
35644;SDS011;21764;52.042;6.830;2023-12-20T12:43:35;43.00;;;12.23;;
35644;SDS011;21764;52.042;6.830;2023-12-20T12:48:37;34.85;;;6.68;;
35644;SDS011;21764;52.042;6.830;2023-12-20T12:53:39;40.28;;;6.90;;
35644;SDS011;21764;52.042;6.830;2023-12-20T12:58:40;37.20;;;6.40;;
35644;SDS011;21764;52.042;6.830;2023-12-20T13:03:41;35.13;;;6.55;;
35644;SDS011;21764;52.042;6.830;2023-12-20T13:08:42;29.15;;;5.40;;
35644;SDS011;21764;52.042;6.830;2023-12-20T13:13:44;35.55;;;6.18;;
35644;SDS011;21764;52.042;6.830;2023-12-20T13:18:45;28.73;;;5.63;;
35644;SDS011;21764;52.042;6.830;2023-12-20T13:23:46;31.17;;;5.43;;
35644;SDS011;21764;52.042;6.830;2023-12-20T13:28:47;43.67;;;6.10;;
35644;SDS011;21764;52.042;6.830;2023-12-20T13:33:48;36.75;;;5.70;;
35644;SDS011;21764;52.042;6.830;2023-12-20T13:38:49;27.90;;;5.53;;
35644;SDS011;21764;52.042;6.830;2023-12-20T13:43:50;30.08;;;5.80;;
35644;SDS011;21764;52.042;6.830;2023-12-20T13:48:51;30.73;;;5.30;;
35644;SDS011;21764;52.042;6.830;2023-12-20T13:53:52;28.88;;;5.70;;
35644;SDS011;21764;52.042;6.830;2023-12-20T13:58:54;28.58;;;5.97;;
35644;SDS011;21764;52.042;6.830;2023-12-20T14:04:05;29.38;;;5.25;;
35644;SDS011;21764;52.042;6.830;2023-12-20T14:09:26;39.25;;;6.75;;
35644;SDS011;21764;52.042;6.830;2023-12-20T14:14:27;32.78;;;6.25;;
35644;SDS011;21764;52.042;6.830;2023-12-20T14:19:31;33.40;;;8.27;;
35644;SDS011;21764;52.042;6.830;2023-12-20T14:24:32;39.60;;;7.03;;
35644;SDS011;21764;52.042;6.830;2023-12-20T14:29:36;43.97;;;10.55;;
35644;SDS011;21764;52.042;6.830;2023-12-20T14:34:38;30.55;;;6.05;;
35644;SDS011;21764;52.042;6.830;2023-12-20T14:39:40;54.15;;;7.28;;
35644;SDS011;21764;52.042;6.830;2023-12-20T14:44:41;37.05;;;9.43;;
35644;SDS011;21764;52.042;6.830;2023-12-20T14:49:42;36.95;;;6.82;;
35644;SDS011;21764;52.042;6.830;2023-12-20T14:54:44;42.88;;;7.90;;
35644;SDS011;21764;52.042;6.830;2023-12-20T14:59:45;31.17;;;7.45;;
35644;SDS011;21764;52.042;6.830;2023-12-20T15:04:46;46.65;;;8.60;;
35644;SDS011;21764;52.042;6.830;2023-12-20T15:09:49;37.60;;;8.10;;
35644;SDS011;21764;52.042;6.830;2023-12-20T15:14:50;41.70;;;8.32;;
35644;SDS011;21764;52.042;6.830;2023-12-20T15:19:53;35.85;;;8.90;;
35644;SDS011;21764;52.042;6.830;2023-12-20T15:24:54;38.95;;;8.90;;
35644;SDS011;21764;52.042;6.830;2023-12-20T15:29:55;35.28;;;8.07;;
35644;SDS011;21764;52.042;6.830;2023-12-20T15:34:56;51.47;;;11.40;;
35644;SDS011;21764;52.042;6.830;2023-12-20T15:39:59;48.47;;;10.55;;
35644;SDS011;21764;52.042;6.830;2023-12-20T15:45:00;49.63;;;9.30;;
35644;SDS011;21764;52.042;6.830;2023-12-20T15:50:02;37.65;;;9.25;;
35644;SDS011;21764;52.042;6.830;2023-12-20T15:55:05;51.95;;;8.88;;
35644;SDS011;21764;52.042;6.830;2023-12-20T16:00:11;41.95;;;9.85;;
35644;SDS011;21764;52.042;6.830;2023-12-20T16:05:12;46.17;;;10.35;;
35644;SDS011;21764;52.042;6.830;2023-12-20T16:10:13;46.80;;;10.05;;
35644;SDS011;21764;52.042;6.830;2023-12-20T16:15:14;35.65;;;10.88;;
35644;SDS011;21764;52.042;6.830;2023-12-20T16:20:19;43.72;;;11.90;;
35644;SDS011;21764;52.042;6.830;2023-12-20T16:25:23;48.15;;;11.27;;
35644;SDS011;21764;52.042;6.830;2023-12-20T16:30:27;43.67;;;11.40;;
35644;SDS011;21764;52.042;6.830;2023-12-20T16:35:30;43.17;;;10.63;;
35644;SDS011;21764;52.042;6.830;2023-12-20T16:40:33;53.75;;;11.55;;
35644;SDS011;21764;52.042;6.830;2023-12-20T16:45:38;45.90;;;12.40;;
35644;SDS011;21764;52.042;6.830;2023-12-20T16:50:43;55.88;;;13.43;;
35644;SDS011;21764;52.042;6.830;2023-12-20T16:55:49;51.05;;;15.73;;
35644;SDS011;21764;52.042;6.830;2023-12-20T17:00:50;49.72;;;14.48;;
35644;SDS011;21764;52.042;6.830;2023-12-20T17:05:52;47.05;;;14.00;;
35644;SDS011;21764;52.042;6.830;2023-12-20T17:10:53;46.25;;;15.82;;
35644;SDS011;21764;52.042;6.830;2023-12-20T17:15:54;53.33;;;21.83;;
35644;SDS011;21764;52.042;6.830;2023-12-20T17:20:55;46.47;;;14.48;;
35644;SDS011;21764;52.042;6.830;2023-12-20T17:25:57;63.70;;;20.92;;
35644;SDS011;21764;52.042;6.830;2023-12-20T17:30:58;63.40;;;19.42;;
35644;SDS011;21764;52.042;6.830;2023-12-20T17:36:03;65.45;;;18.90;;
35644;SDS011;21764;52.042;6.830;2023-12-20T17:41:08;56.13;;;19.55;;
35644;SDS011;21764;52.042;6.830;2023-12-20T17:46:15;53.78;;;19.88;;
35644;SDS011;21764;52.042;6.830;2023-12-20T17:51:28;67.13;;;20.75;;
35644;SDS011;21764;52.042;6.830;2023-12-20T17:56:31;50.08;;;18.42;;
35644;SDS011;21764;52.042;6.830;2023-12-20T18:01:36;57.03;;;20.45;;
35644;SDS011;21764;52.042;6.830;2023-12-20T18:06:40;51.03;;;19.90;;
35644;SDS011;21764;52.042;6.830;2023-12-20T18:11:42;48.80;;;21.00;;
35644;SDS011;21764;52.042;6.830;2023-12-20T18:16:55;52.83;;;21.10;;
35644;SDS011;21764;52.042;6.830;2023-12-20T18:21:57;47.83;;;19.70;;
35644;SDS011;21764;52.042;6.830;2023-12-20T18:26:59;50.53;;;21.10;;
35644;SDS011;21764;52.042;6.830;2023-12-20T18:32:02;53.17;;;21.23;;
35644;SDS011;21764;52.042;6.830;2023-12-20T18:37:04;56.20;;;23.30;;
35644;SDS011;21764;52.042;6.830;2023-12-20T18:42:13;46.28;;;21.15;;
35644;SDS011;21764;52.042;6.830;2023-12-20T18:47:25;56.08;;;27.17;;
35644;SDS011;21764;52.042;6.830;2023-12-20T18:52:28;50.25;;;21.63;;
35644;SDS011;21764;52.042;6.830;2023-12-20T18:57:43;51.33;;;21.83;;
35644;SDS011;21764;52.042;6.830;2023-12-20T19:02:48;43.78;;;23.77;;
35644;SDS011;21764;52.042;6.830;2023-12-20T19:07:51;39.72;;;21.95;;
35644;SDS011;21764;52.042;6.830;2023-12-20T19:13:24;50.92;;;24.20;;
35644;SDS011;21764;52.042;6.830;2023-12-20T19:18:46;43.13;;;22.33;;
35644;SDS011;21764;52.042;6.830;2023-12-20T19:23:53;46.65;;;23.08;;
35644;SDS011;21764;52.042;6.830;2023-12-20T19:29:17;38.25;;;21.85;;
35644;SDS011;21764;52.042;6.830;2023-12-20T19:34:29;46.28;;;22.02;;
35644;SDS011;21764;52.042;6.830;2023-12-20T19:39:33;52.92;;;23.17;;
35644;SDS011;21764;52.042;6.830;2023-12-20T19:44:35;44.97;;;23.58;;
35644;SDS011;21764;52.042;6.830;2023-12-20T19:49:45;52.53;;;25.13;;
35644;SDS011;21764;52.042;6.830;2023-12-20T19:54:52;46.75;;;24.27;;
35644;SDS011;21764;52.042;6.830;2023-12-20T20:00:15;41.00;;;22.20;;
35644;SDS011;21764;52.042;6.830;2023-12-20T20:05:23;45.88;;;23.73;;
35644;SDS011;21764;52.042;6.830;2023-12-20T20:10:26;47.70;;;24.95;;
35644;SDS011;21764;52.042;6.830;2023-12-20T20:15:51;87.07;;;35.58;;
35644;SDS011;21764;52.042;6.830;2023-12-20T20:20:55;54.97;;;25.73;;
35644;SDS011;21764;52.042;6.830;2023-12-20T20:26:18;38.93;;;21.80;;
35644;SDS011;21764;52.042;6.830;2023-12-20T20:31:37;39.40;;;20.70;;
35644;SDS011;21764;52.042;6.830;2023-12-20T20:36:46;43.95;;;21.38;;
35644;SDS011;21764;52.042;6.830;2023-12-20T20:41:51;43.97;;;24.27;;
35644;SDS011;21764;52.042;6.830;2023-12-20T20:46:54;50.40;;;22.33;;
35644;SDS011;21764;52.042;6.830;2023-12-20T20:51:57;42.53;;;20.52;;
35644;SDS011;21764;52.042;6.830;2023-12-20T20:57:02;47.40;;;21.88;;
35644;SDS011;21764;52.042;6.830;2023-12-20T21:02:16;40.85;;;19.85;;
35644;SDS011;21764;52.042;6.830;2023-12-20T21:07:20;48.80;;;21.23;;
35644;SDS011;21764;52.042;6.830;2023-12-20T21:12:24;29.30;;;15.77;;
35644;SDS011;21764;52.042;6.830;2023-12-20T21:17:48;30.52;;;16.30;;
35644;SDS011;21764;52.042;6.830;2023-12-20T21:22:56;29.67;;;13.40;;
35644;SDS011;21764;52.042;6.830;2023-12-20T21:27:58;28.50;;;15.60;;
35644;SDS011;21764;52.042;6.830;2023-12-20T21:33:03;26.75;;;13.15;;
35644;SDS011;21764;52.042;6.830;2023-12-20T21:38:08;30.25;;;14.13;;
35644;SDS011;21764;52.042;6.830;2023-12-20T21:43:18;29.40;;;16.27;;
35644;SDS011;21764;52.042;6.830;2023-12-20T21:48:21;38.03;;;16.73;;
35644;SDS011;21764;52.042;6.830;2023-12-20T21:53:32;26.75;;;14.82;;
35644;SDS011;21764;52.042;6.830;2023-12-20T21:58:33;24.77;;;13.35;;
35644;SDS011;21764;52.042;6.830;2023-12-20T22:03:39;26.48;;;13.75;;
35644;SDS011;21764;52.042;6.830;2023-12-20T22:08:42;20.52;;;13.32;;
35644;SDS011;21764;52.042;6.830;2023-12-20T22:14:07;19.90;;;11.07;;
35644;SDS011;21764;52.042;6.830;2023-12-20T22:19:16;21.63;;;12.02;;
35644;SDS011;21764;52.042;6.830;2023-12-20T22:24:17;24.77;;;12.48;;
35644;SDS011;21764;52.042;6.830;2023-12-20T22:29:21;23.90;;;13.13;;
35644;SDS011;21764;52.042;6.830;2023-12-20T22:39:31;28.70;;;15.07;;
35644;SDS011;21764;52.042;6.830;2023-12-20T22:44:32;22.50;;;14.43;;
35644;SDS011;21764;52.042;6.830;2023-12-20T22:49:33;23.50;;;14.32;;
35644;SDS011;21764;52.042;6.830;2023-12-20T22:54:38;23.05;;;13.45;;
35644;SDS011;21764;52.042;6.830;2023-12-20T22:59:42;28.08;;;15.32;;
35644;SDS011;21764;52.042;6.830;2023-12-20T23:04:44;26.83;;;15.85;;
35644;SDS011;21764;52.042;6.830;2023-12-20T23:09:49;24.75;;;13.32;;
35644;SDS011;21764;52.042;6.830;2023-12-20T23:19:55;28.95;;;14.68;;
35644;SDS011;21764;52.042;6.830;2023-12-20T23:24:56;28.38;;;15.55;;
35644;SDS011;21764;52.042;6.830;2023-12-20T23:29:58;25.33;;;15.55;;
35644;SDS011;21764;52.042;6.830;2023-12-20T23:34:59;35.00;;;16.10;;
35644;SDS011;21764;52.042;6.830;2023-12-20T23:40:04;23.33;;;15.07;;
35644;SDS011;21764;52.042;6.830;2023-12-20T23:45:07;27.08;;;15.88;;
35644;SDS011;21764;52.042;6.830;2023-12-20T23:50:12;32.58;;;17.45;;
35644;SDS011;21764;52.042;6.830;2023-12-20T23:55:14;32.65;;;15.15;;
